sensor_id;sensor_type;location;lat;lon;timestamp;P1;durP1;ratioP1;P2;durP2;ratioP2
19179;SDS011;9722;48.754;8.868;2024-01-06T00:01:41;4.20;;;3.80;;
19179;SDS011;9722;48.754;8.868;2024-01-06T00:05:01;5.30;;;3.70;;
19179;SDS011;9722;48.754;8.868;2024-01-06T00:08:22;4.80;;;4.00;;
19179;SDS011;9722;48.754;8.868;2024-01-06T00:11:42;5.17;;;4.30;;
19179;SDS011;9722;48.754;8.868;2024-01-06T00:15:03;4.60;;;4.20;;
19179;SDS011;9722;48.754;8.868;2024-01-06T00:18:24;4.40;;;3.90;;
19179;SDS011;9722;48.754;8.868;2024-01-06T00:21:44;3.60;;;2.77;;
19179;SDS011;9722;48.754;8.868;2024-01-06T00:25:05;4.57;;;3.03;;
19179;SDS011;9722;48.754;8.868;2024-01-06T00:28:26;4.10;;;3.70;;
19179;SDS011;9722;48.754;8.868;2024-01-06T00:31:46;5.17;;;4.53;;
19179;SDS011;9722;48.754;8.868;2024-01-06T00:35:07;6.17;;;5.53;;
19179;SDS011;9722;48.754;8.868;2024-01-06T00:38:27;6.60;;;5.53;;
19179;SDS011;9722;48.754;8.868;2024-01-06T00:41:48;7.53;;;4.83;;
19179;SDS011;9722;48.754;8.868;2024-01-06T00:45:08;5.97;;;5.27;;
19179;SDS011;9722;48.754;8.868;2024-01-06T00:48:29;6.43;;;4.70;;
19179;SDS011;9722;48.754;8.868;2024-01-06T00:51:49;4.93;;;3.33;;
19179;SDS011;9722;48.754;8.868;2024-01-06T00:55:10;3.30;;;2.70;;
19179;SDS011;9722;48.754;8.868;2024-01-06T00:58:31;6.17;;;3.97;;
19179;SDS011;9722;48.754;8.868;2024-01-06T01:01:51;6.40;;;3.40;;
19179;SDS011;9722;48.754;8.868;2024-01-06T01:05:12;4.77;;;2.90;;
19179;SDS011;9722;48.754;8.868;2024-01-06T01:08:32;5.03;;;2.70;;
19179;SDS011;9722;48.754;8.868;2024-01-06T01:11:53;1.97;;;1.63;;
19179;SDS011;9722;48.754;8.868;2024-01-06T01:15:13;3.70;;;1.43;;
19179;SDS011;9722;48.754;8.868;2024-01-06T01:18:34;1.53;;;1.10;;
19179;SDS011;9722;48.754;8.868;2024-01-06T01:21:54;2.77;;;1.23;;
19179;SDS011;9722;48.754;8.868;2024-01-06T01:25:15;5.70;;;1.43;;
19179;SDS011;9722;48.754;8.868;2024-01-06T01:28:36;2.93;;;1.10;;
19179;SDS011;9722;48.754;8.868;2024-01-06T01:31:56;2.53;;;1.20;;
19179;SDS011;9722;48.754;8.868;2024-01-06T01:35:17;1.63;;;1.30;;
19179;SDS011;9722;48.754;8.868;2024-01-06T01:38:37;2.27;;;1.13;;
19179;SDS011;9722;48.754;8.868;2024-01-06T01:41:57;2.83;;;1.00;;
19179;SDS011;9722;48.754;8.868;2024-01-06T01:45:18;1.20;;;1.10;;
19179;SDS011;9722;48.754;8.868;2024-01-06T01:48:39;1.50;;;0.90;;
19179;SDS011;9722;48.754;8.868;2024-01-06T01:52:00;4.67;;;1.10;;
19179;SDS011;9722;48.754;8.868;2024-01-06T01:55:20;2.90;;;1.00;;
19179;SDS011;9722;48.754;8.868;2024-01-06T01:58:41;0.90;;;0.83;;
19179;SDS011;9722;48.754;8.868;2024-01-06T02:02:02;1.70;;;1.10;;
19179;SDS011;9722;48.754;8.868;2024-01-06T02:05:22;4.70;;;0.90;;
19179;SDS011;9722;48.754;8.868;2024-01-06T02:08:43;2.30;;;0.97;;
19179;SDS011;9722;48.754;8.868;2024-01-06T02:12:03;2.20;;;1.10;;
19179;SDS011;9722;48.754;8.868;2024-01-06T02:15:24;0.80;;;0.80;;
19179;SDS011;9722;48.754;8.868;2024-01-06T02:18:44;0.83;;;0.77;;
19179;SDS011;9722;48.754;8.868;2024-01-06T02:22:05;3.00;;;1.00;;
19179;SDS011;9722;48.754;8.868;2024-01-06T02:25:26;3.50;;;1.30;;
19179;SDS011;9722;48.754;8.868;2024-01-06T02:28:46;2.87;;;1.00;;
19179;SDS011;9722;48.754;8.868;2024-01-06T02:32:09;2.33;;;1.00;;
19179;SDS011;9722;48.754;8.868;2024-01-06T02:35:29;2.10;;;1.07;;
19179;SDS011;9722;48.754;8.868;2024-01-06T02:38:50;2.70;;;0.83;;
19179;SDS011;9722;48.754;8.868;2024-01-06T02:42:10;1.87;;;0.90;;
19179;SDS011;9722;48.754;8.868;2024-01-06T02:45:31;2.83;;;0.80;;
19179;SDS011;9722;48.754;8.868;2024-01-06T02:48:51;1.80;;;0.83;;
19179;SDS011;9722;48.754;8.868;2024-01-06T02:52:12;2.93;;;1.00;;
19179;SDS011;9722;48.754;8.868;2024-01-06T02:55:32;1.47;;;1.00;;
19179;SDS011;9722;48.754;8.868;2024-01-06T02:58:53;1.57;;;1.47;;
19179;SDS011;9722;48.754;8.868;2024-01-06T03:02:13;1.83;;;1.20;;
19179;SDS011;9722;48.754;8.868;2024-01-06T03:05:34;1.80;;;1.03;;
19179;SDS011;9722;48.754;8.868;2024-01-06T03:08:54;3.07;;;0.97;;
19179;SDS011;9722;48.754;8.868;2024-01-06T03:12:15;1.97;;;1.00;;
19179;SDS011;9722;48.754;8.868;2024-01-06T03:15:35;2.27;;;1.03;;
19179;SDS011;9722;48.754;8.868;2024-01-06T03:18:56;1.13;;;1.00;;
19179;SDS011;9722;48.754;8.868;2024-01-06T03:22:16;2.93;;;1.00;;
19179;SDS011;9722;48.754;8.868;2024-01-06T03:25:37;1.50;;;1.07;;
19179;SDS011;9722;48.754;8.868;2024-01-06T03:28:57;2.87;;;0.70;;
19179;SDS011;9722;48.754;8.868;2024-01-06T03:32:19;2.83;;;1.30;;
19179;SDS011;9722;48.754;8.868;2024-01-06T03:35:39;3.47;;;0.80;;
19179;SDS011;9722;48.754;8.868;2024-01-06T03:39:00;5.70;;;1.00;;
19179;SDS011;9722;48.754;8.868;2024-01-06T03:42:20;2.87;;;1.00;;
19179;SDS011;9722;48.754;8.868;2024-01-06T03:45:40;1.73;;;0.97;;
19179;SDS011;9722;48.754;8.868;2024-01-06T03:49:01;3.37;;;1.90;;
19179;SDS011;9722;48.754;8.868;2024-01-06T03:52:21;10.30;;;3.13;;
19179;SDS011;9722;48.754;8.868;2024-01-06T03:55:42;6.90;;;3.23;;
19179;SDS011;9722;48.754;8.868;2024-01-06T03:59:03;12.83;;;4.90;;
19179;SDS011;9722;48.754;8.868;2024-01-06T04:02:23;5.63;;;2.63;;
19179;SDS011;9722;48.754;8.868;2024-01-06T04:05:44;5.27;;;2.53;;
19179;SDS011;9722;48.754;8.868;2024-01-06T04:09:04;8.93;;;3.77;;
19179;SDS011;9722;48.754;8.868;2024-01-06T04:12:26;10.83;;;4.63;;
19179;SDS011;9722;48.754;8.868;2024-01-06T04:15:46;10.10;;;3.83;;
19179;SDS011;9722;48.754;8.868;2024-01-06T04:19:06;7.20;;;3.23;;
19179;SDS011;9722;48.754;8.868;2024-01-06T04:22:27;8.87;;;3.60;;
19179;SDS011;9722;48.754;8.868;2024-01-06T04:25:48;6.33;;;2.40;;
19179;SDS011;9722;48.754;8.868;2024-01-06T04:29:08;2.83;;;1.50;;
19179;SDS011;9722;48.754;8.868;2024-01-06T04:32:28;1.73;;;1.17;;
19179;SDS011;9722;48.754;8.868;2024-01-06T04:35:49;2.67;;;1.23;;
19179;SDS011;9722;48.754;8.868;2024-01-06T04:39:10;19.73;;;8.10;;
19179;SDS011;9722;48.754;8.868;2024-01-06T04:42:32;13.27;;;5.33;;
19179;SDS011;9722;48.754;8.868;2024-01-06T04:45:53;7.83;;;3.93;;
19179;SDS011;9722;48.754;8.868;2024-01-06T04:49:14;11.23;;;5.20;;
19179;SDS011;9722;48.754;8.868;2024-01-06T04:52:34;2.60;;;1.40;;
19179;SDS011;9722;48.754;8.868;2024-01-06T04:55:55;3.67;;;1.00;;
19179;SDS011;9722;48.754;8.868;2024-01-06T04:59:15;1.50;;;1.00;;
19179;SDS011;9722;48.754;8.868;2024-01-06T05:02:36;1.40;;;1.00;;
19179;SDS011;9722;48.754;8.868;2024-01-06T05:05:56;3.23;;;1.03;;
19179;SDS011;9722;48.754;8.868;2024-01-06T05:09:17;2.13;;;1.33;;
19179;SDS011;9722;48.754;8.868;2024-01-06T05:12:37;2.87;;;1.53;;
19179;SDS011;9722;48.754;8.868;2024-01-06T05:15:58;3.97;;;1.60;;
19179;SDS011;9722;48.754;8.868;2024-01-06T05:19:18;2.60;;;1.40;;
19179;SDS011;9722;48.754;8.868;2024-01-06T05:22:41;5.07;;;1.20;;
19179;SDS011;9722;48.754;8.868;2024-01-06T05:26:01;0.83;;;0.83;;
19179;SDS011;9722;48.754;8.868;2024-01-06T05:29:22;2.93;;;1.10;;
19179;SDS011;9722;48.754;8.868;2024-01-06T05:32:42;3.13;;;1.10;;
19179;SDS011;9722;48.754;8.868;2024-01-06T05:36:03;1.70;;;1.10;;
19179;SDS011;9722;48.754;8.868;2024-01-06T05:39:24;0.80;;;0.80;;
19179;SDS011;9722;48.754;8.868;2024-01-06T05:42:45;1.37;;;0.90;;
19179;SDS011;9722;48.754;8.868;2024-01-06T05:46:05;2.50;;;0.97;;
19179;SDS011;9722;48.754;8.868;2024-01-06T05:49:26;0.83;;;0.70;;
19179;SDS011;9722;48.754;8.868;2024-01-06T05:52:47;1.23;;;0.80;;
19179;SDS011;9722;48.754;8.868;2024-01-06T05:56:08;0.80;;;0.80;;
19179;SDS011;9722;48.754;8.868;2024-01-06T05:59:32;2.53;;;0.80;;
19179;SDS011;9722;48.754;8.868;2024-01-06T06:02:52;1.13;;;0.77;;
19179;SDS011;9722;48.754;8.868;2024-01-06T06:06:13;1.13;;;1.00;;
19179;SDS011;9722;48.754;8.868;2024-01-06T06:09:33;2.00;;;0.90;;
19179;SDS011;9722;48.754;8.868;2024-01-06T06:12:59;0.70;;;0.70;;
19179;SDS011;9722;48.754;8.868;2024-01-06T06:16:20;0.80;;;0.80;;
19179;SDS011;9722;48.754;8.868;2024-01-06T06:19:40;1.30;;;1.10;;
19179;SDS011;9722;48.754;8.868;2024-01-06T06:23:01;2.23;;;1.50;;
19179;SDS011;9722;48.754;8.868;2024-01-06T06:26:21;1.67;;;1.10;;
19179;SDS011;9722;48.754;8.868;2024-01-06T06:29:42;1.43;;;1.10;;
19179;SDS011;9722;48.754;8.868;2024-01-06T06:33:02;0.90;;;0.90;;
19179;SDS011;9722;48.754;8.868;2024-01-06T06:36:23;2.00;;;1.00;;
19179;SDS011;9722;48.754;8.868;2024-01-06T06:39:43;2.63;;;1.37;;
19179;SDS011;9722;48.754;8.868;2024-01-06T06:43:04;2.47;;;1.13;;
19179;SDS011;9722;48.754;8.868;2024-01-06T06:46:25;1.50;;;1.20;;
19179;SDS011;9722;48.754;8.868;2024-01-06T06:49:45;2.53;;;1.60;;
19179;SDS011;9722;48.754;8.868;2024-01-06T06:53:06;2.07;;;1.23;;
19179;SDS011;9722;48.754;8.868;2024-01-06T06:56:27;3.00;;;1.40;;
19179;SDS011;9722;48.754;8.868;2024-01-06T06:59:48;1.20;;;1.10;;
19179;SDS011;9722;48.754;8.868;2024-01-06T07:03:09;0.80;;;0.77;;
19179;SDS011;9722;48.754;8.868;2024-01-06T07:06:29;1.03;;;0.80;;
19179;SDS011;9722;48.754;8.868;2024-01-06T07:09:50;0.80;;;0.80;;
19179;SDS011;9722;48.754;8.868;2024-01-06T07:13:11;1.60;;;1.30;;
19179;SDS011;9722;48.754;8.868;2024-01-06T07:16:31;1.27;;;1.17;;
19179;SDS011;9722;48.754;8.868;2024-01-06T07:19:52;2.50;;;1.23;;
19179;SDS011;9722;48.754;8.868;2024-01-06T07:23:13;2.33;;;1.67;;
19179;SDS011;9722;48.754;8.868;2024-01-06T07:26:34;1.10;;;1.00;;
19179;SDS011;9722;48.754;8.868;2024-01-06T07:29:54;1.07;;;0.97;;
19179;SDS011;9722;48.754;8.868;2024-01-06T07:33:16;0.80;;;0.80;;
19179;SDS011;9722;48.754;8.868;2024-01-06T07:36:36;0.67;;;0.67;;
19179;SDS011;9722;48.754;8.868;2024-01-06T07:39:58;1.63;;;0.87;;
19179;SDS011;9722;48.754;8.868;2024-01-06T07:43:18;1.20;;;0.83;;
19179;SDS011;9722;48.754;8.868;2024-01-06T07:46:39;1.60;;;0.80;;
19179;SDS011;9722;48.754;8.868;2024-01-06T07:50:02;0.80;;;0.80;;
19179;SDS011;9722;48.754;8.868;2024-01-06T07:53:25;2.70;;;1.53;;
19179;SDS011;9722;48.754;8.868;2024-01-06T07:56:45;5.63;;;3.83;;
19179;SDS011;9722;48.754;8.868;2024-01-06T08:00:06;5.57;;;3.53;;
19179;SDS011;9722;48.754;8.868;2024-01-06T08:03:27;2.37;;;1.80;;
19179;SDS011;9722;48.754;8.868;2024-01-06T08:06:48;5.93;;;3.17;;
19179;SDS011;9722;48.754;8.868;2024-01-06T08:10:08;5.30;;;3.47;;
19179;SDS011;9722;48.754;8.868;2024-01-06T08:13:29;7.23;;;3.07;;
19179;SDS011;9722;48.754;8.868;2024-01-06T08:16:49;3.77;;;2.50;;
19179;SDS011;9722;48.754;8.868;2024-01-06T08:20:10;5.53;;;2.90;;
19179;SDS011;9722;48.754;8.868;2024-01-06T08:23:30;5.90;;;3.03;;
19179;SDS011;9722;48.754;8.868;2024-01-06T08:26:51;8.27;;;4.17;;
19179;SDS011;9722;48.754;8.868;2024-01-06T08:30:11;2.93;;;2.47;;
19179;SDS011;9722;48.754;8.868;2024-01-06T08:33:32;4.87;;;2.50;;
19179;SDS011;9722;48.754;8.868;2024-01-06T08:36:52;3.53;;;2.70;;
19179;SDS011;9722;48.754;8.868;2024-01-06T08:40:13;3.93;;;3.07;;
19179;SDS011;9722;48.754;8.868;2024-01-06T08:43:33;3.17;;;2.13;;
19179;SDS011;9722;48.754;8.868;2024-01-06T08:46:54;2.03;;;1.37;;
19179;SDS011;9722;48.754;8.868;2024-01-06T08:50:14;3.00;;;1.40;;
19179;SDS011;9722;48.754;8.868;2024-01-06T08:53:35;1.43;;;1.00;;
19179;SDS011;9722;48.754;8.868;2024-01-06T08:56:55;2.00;;;1.73;;
19179;SDS011;9722;48.754;8.868;2024-01-06T09:00:17;1.60;;;1.50;;
19179;SDS011;9722;48.754;8.868;2024-01-06T09:03:37;2.40;;;1.43;;
19179;SDS011;9722;48.754;8.868;2024-01-06T09:06:58;1.77;;;1.27;;
19179;SDS011;9722;48.754;8.868;2024-01-06T09:10:18;1.10;;;0.80;;
19179;SDS011;9722;48.754;8.868;2024-01-06T09:13:39;1.43;;;0.70;;
19179;SDS011;9722;48.754;8.868;2024-01-06T09:16:59;0.70;;;0.70;;
19179;SDS011;9722;48.754;8.868;2024-01-06T09:20:20;0.70;;;0.70;;
19179;SDS011;9722;48.754;8.868;2024-01-06T09:23:43;0.70;;;0.70;;
19179;SDS011;9722;48.754;8.868;2024-01-06T09:27:03;1.13;;;0.63;;
19179;SDS011;9722;48.754;8.868;2024-01-06T09:30:24;0.70;;;0.70;;
19179;SDS011;9722;48.754;8.868;2024-01-06T09:33:45;0.70;;;0.60;;
19179;SDS011;9722;48.754;8.868;2024-01-06T09:37:05;0.70;;;0.70;;
19179;SDS011;9722;48.754;8.868;2024-01-06T09:40:26;3.27;;;2.30;;
19179;SDS011;9722;48.754;8.868;2024-01-06T09:43:46;0.80;;;0.80;;
19179;SDS011;9722;48.754;8.868;2024-01-06T09:47:07;0.50;;;0.50;;
19179;SDS011;9722;48.754;8.868;2024-01-06T09:50:32;0.40;;;0.40;;
19179;SDS011;9722;48.754;8.868;2024-01-06T09:57:21;4.17;;;1.87;;
19179;SDS011;9722;48.754;8.868;2024-01-06T10:00:42;2.17;;;1.90;;
19179;SDS011;9722;48.754;8.868;2024-01-06T10:04:03;1.33;;;1.17;;
19179;SDS011;9722;48.754;8.868;2024-01-06T10:07:25;0.70;;;0.63;;
19179;SDS011;9722;48.754;8.868;2024-01-06T10:10:46;0.40;;;0.40;;
19179;SDS011;9722;48.754;8.868;2024-01-06T10:14:06;0.40;;;0.40;;
19179;SDS011;9722;48.754;8.868;2024-01-06T10:17:27;0.63;;;0.50;;
19179;SDS011;9722;48.754;8.868;2024-01-06T10:20:48;0.67;;;0.40;;
19179;SDS011;9722;48.754;8.868;2024-01-06T10:24:10;0.80;;;0.80;;
19179;SDS011;9722;48.754;8.868;2024-01-06T10:27:30;0.50;;;0.50;;
19179;SDS011;9722;48.754;8.868;2024-01-06T10:30:53;0.40;;;0.40;;
19179;SDS011;9722;48.754;8.868;2024-01-06T10:34:14;0.30;;;0.30;;
19179;SDS011;9722;48.754;8.868;2024-01-06T10:37:35;0.37;;;0.37;;
19179;SDS011;9722;48.754;8.868;2024-01-06T10:44:23;2.10;;;1.20;;
19179;SDS011;9722;48.754;8.868;2024-01-06T10:47:44;0.97;;;0.90;;
19179;SDS011;9722;48.754;8.868;2024-01-06T10:51:05;0.60;;;0.60;;
19179;SDS011;9722;48.754;8.868;2024-01-06T10:54:27;0.50;;;0.50;;
19179;SDS011;9722;48.754;8.868;2024-01-06T10:57:49;0.30;;;0.30;;
19179;SDS011;9722;48.754;8.868;2024-01-06T11:01:13;0.90;;;0.73;;
19179;SDS011;9722;48.754;8.868;2024-01-06T11:04:35;0.40;;;0.40;;
19179;SDS011;9722;48.754;8.868;2024-01-06T11:07:57;2.57;;;2.30;;
19179;SDS011;9722;48.754;8.868;2024-01-06T11:11:20;1.80;;;1.70;;
19179;SDS011;9722;48.754;8.868;2024-01-06T11:14:43;0.83;;;0.83;;
19179;SDS011;9722;48.754;8.868;2024-01-06T11:18:05;1.20;;;1.10;;
19179;SDS011;9722;48.754;8.868;2024-01-06T11:21:26;0.63;;;0.60;;
19179;SDS011;9722;48.754;8.868;2024-01-06T11:24:48;7.20;;;3.50;;
19179;SDS011;9722;48.754;8.868;2024-01-06T11:28:13;0.87;;;0.60;;
19179;SDS011;9722;48.754;8.868;2024-01-06T11:31:33;2.93;;;1.80;;
19179;SDS011;9722;48.754;8.868;2024-01-06T11:34:55;1.37;;;1.27;;
19179;SDS011;9722;48.754;8.868;2024-01-06T11:38:18;1.57;;;1.40;;
19179;SDS011;9722;48.754;8.868;2024-01-06T11:41:47;0.50;;;0.50;;
19179;SDS011;9722;48.754;8.868;2024-01-06T11:45:12;3.57;;;1.67;;
19179;SDS011;9722;48.754;8.868;2024-01-06T11:48:33;0.87;;;0.60;;
19179;SDS011;9722;48.754;8.868;2024-01-06T11:51:56;0.47;;;0.40;;
19179;SDS011;9722;48.754;8.868;2024-01-06T11:55:18;1.60;;;0.70;;
19179;SDS011;9722;48.754;8.868;2024-01-06T11:58:39;0.80;;;0.80;;
19179;SDS011;9722;48.754;8.868;2024-01-06T12:02:00;0.40;;;0.40;;
19179;SDS011;9722;48.754;8.868;2024-01-06T12:05:21;1.83;;;0.60;;
19179;SDS011;9722;48.754;8.868;2024-01-06T12:08:44;0.87;;;0.63;;
19179;SDS011;9722;48.754;8.868;2024-01-06T12:12:04;0.50;;;0.50;;
19179;SDS011;9722;48.754;8.868;2024-01-06T12:15:26;0.50;;;0.50;;
19179;SDS011;9722;48.754;8.868;2024-01-06T12:18:48;0.50;;;0.50;;
19179;SDS011;9722;48.754;8.868;2024-01-06T12:22:10;0.70;;;0.60;;
19179;SDS011;9722;48.754;8.868;2024-01-06T12:25:35;0.83;;;0.80;;
19179;SDS011;9722;48.754;8.868;2024-01-06T12:28:56;0.50;;;0.50;;
19179;SDS011;9722;48.754;8.868;2024-01-06T12:32:17;0.50;;;0.50;;
19179;SDS011;9722;48.754;8.868;2024-01-06T12:35:38;0.53;;;0.53;;
19179;SDS011;9722;48.754;8.868;2024-01-06T12:38:59;0.60;;;0.60;;
19179;SDS011;9722;48.754;8.868;2024-01-06T12:42:26;1.93;;;1.30;;
19179;SDS011;9722;48.754;8.868;2024-01-06T12:45:47;0.70;;;0.70;;
19179;SDS011;9722;48.754;8.868;2024-01-06T12:49:08;1.20;;;1.10;;
19179;SDS011;9722;48.754;8.868;2024-01-06T12:52:30;0.70;;;0.70;;
19179;SDS011;9722;48.754;8.868;2024-01-06T12:55:50;0.80;;;0.80;;
19179;SDS011;9722;48.754;8.868;2024-01-06T12:59:10;2.27;;;1.70;;
19179;SDS011;9722;48.754;8.868;2024-01-06T13:02:31;1.53;;;1.40;;
19179;SDS011;9722;48.754;8.868;2024-01-06T13:05:52;1.30;;;1.20;;
19179;SDS011;9722;48.754;8.868;2024-01-06T13:09:12;1.27;;;1.17;;
19179;SDS011;9722;48.754;8.868;2024-01-06T13:12:36;1.00;;;1.00;;
19179;SDS011;9722;48.754;8.868;2024-01-06T13:15:56;1.23;;;1.13;;
19179;SDS011;9722;48.754;8.868;2024-01-06T13:19:17;0.83;;;0.83;;
19179;SDS011;9722;48.754;8.868;2024-01-06T13:22:38;0.80;;;0.80;;
19179;SDS011;9722;48.754;8.868;2024-01-06T13:26:00;1.30;;;1.20;;
19179;SDS011;9722;48.754;8.868;2024-01-06T13:29:21;0.90;;;0.90;;
19179;SDS011;9722;48.754;8.868;2024-01-06T13:32:41;0.97;;;0.97;;
19179;SDS011;9722;48.754;8.868;2024-01-06T13:36:02;0.93;;;0.80;;
19179;SDS011;9722;48.754;8.868;2024-01-06T13:39:24;1.00;;;1.00;;
19179;SDS011;9722;48.754;8.868;2024-01-06T13:42:45;0.70;;;0.70;;
19179;SDS011;9722;48.754;8.868;2024-01-06T13:46:06;0.97;;;0.97;;
19179;SDS011;9722;48.754;8.868;2024-01-06T13:49:27;0.90;;;0.80;;
19179;SDS011;9722;48.754;8.868;2024-01-06T13:52:47;0.90;;;0.90;;
19179;SDS011;9722;48.754;8.868;2024-01-06T13:56:08;1.30;;;1.20;;
19179;SDS011;9722;48.754;8.868;2024-01-06T13:59:29;1.63;;;1.47;;
19179;SDS011;9722;48.754;8.868;2024-01-06T14:02:49;1.03;;;1.03;;
19179;SDS011;9722;48.754;8.868;2024-01-06T14:06:10;1.47;;;1.37;;
19179;SDS011;9722;48.754;8.868;2024-01-06T14:09:30;1.40;;;1.30;;
19179;SDS011;9722;48.754;8.868;2024-01-06T14:12:51;1.60;;;1.37;;
19179;SDS011;9722;48.754;8.868;2024-01-06T14:16:12;1.43;;;1.33;;
19179;SDS011;9722;48.754;8.868;2024-01-06T14:19:33;1.70;;;1.60;;
19179;SDS011;9722;48.754;8.868;2024-01-06T14:22:53;1.40;;;1.30;;
19179;SDS011;9722;48.754;8.868;2024-01-06T14:26:14;1.40;;;1.30;;
19179;SDS011;9722;48.754;8.868;2024-01-06T14:29:36;1.50;;;1.40;;
19179;SDS011;9722;48.754;8.868;2024-01-06T14:32:59;1.77;;;1.30;;
19179;SDS011;9722;48.754;8.868;2024-01-06T14:36:19;1.40;;;1.30;;
19179;SDS011;9722;48.754;8.868;2024-01-06T14:39:40;2.07;;;1.80;;
19179;SDS011;9722;48.754;8.868;2024-01-06T14:43:01;1.40;;;1.30;;
19179;SDS011;9722;48.754;8.868;2024-01-06T14:46:22;2.00;;;1.53;;
19179;SDS011;9722;48.754;8.868;2024-01-06T14:49:42;1.47;;;1.37;;
19179;SDS011;9722;48.754;8.868;2024-01-06T14:53:03;1.20;;;1.10;;
19179;SDS011;9722;48.754;8.868;2024-01-06T14:56:24;2.13;;;1.30;;
19179;SDS011;9722;48.754;8.868;2024-01-06T14:59:46;1.40;;;1.30;;
19179;SDS011;9722;48.754;8.868;2024-01-06T15:03:06;1.50;;;1.40;;
19179;SDS011;9722;48.754;8.868;2024-01-06T15:06:27;1.87;;;1.77;;
19179;SDS011;9722;48.754;8.868;2024-01-06T15:09:47;2.10;;;2.00;;
19179;SDS011;9722;48.754;8.868;2024-01-06T15:13:08;2.03;;;1.93;;
19179;SDS011;9722;48.754;8.868;2024-01-06T15:16:28;3.23;;;2.30;;
19179;SDS011;9722;48.754;8.868;2024-01-06T15:19:49;3.00;;;2.80;;
19179;SDS011;9722;48.754;8.868;2024-01-06T15:23:09;2.90;;;2.70;;
19179;SDS011;9722;48.754;8.868;2024-01-06T15:26:30;2.83;;;2.63;;
19179;SDS011;9722;48.754;8.868;2024-01-06T15:29:50;3.87;;;3.03;;
19179;SDS011;9722;48.754;8.868;2024-01-06T15:33:11;4.10;;;3.47;;
19179;SDS011;9722;48.754;8.868;2024-01-06T15:36:31;4.00;;;2.00;;
19179;SDS011;9722;48.754;8.868;2024-01-06T15:39:52;2.00;;;1.90;;
19179;SDS011;9722;48.754;8.868;2024-01-06T15:43:12;2.73;;;2.50;;
19179;SDS011;9722;48.754;8.868;2024-01-06T15:46:33;2.70;;;2.50;;
19179;SDS011;9722;48.754;8.868;2024-01-06T15:49:53;3.80;;;2.53;;
19179;SDS011;9722;48.754;8.868;2024-01-06T15:53:14;3.73;;;3.43;;
19179;SDS011;9722;48.754;8.868;2024-01-06T15:56:37;3.70;;;3.10;;
19179;SDS011;9722;48.754;8.868;2024-01-06T15:59:57;3.97;;;3.50;;
19179;SDS011;9722;48.754;8.868;2024-01-06T16:03:18;3.57;;;3.27;;
19179;SDS011;9722;48.754;8.868;2024-01-06T16:06:39;3.40;;;3.10;;
19179;SDS011;9722;48.754;8.868;2024-01-06T16:10:00;3.87;;;3.40;;
19179;SDS011;9722;48.754;8.868;2024-01-06T16:13:20;3.70;;;3.40;;
19179;SDS011;9722;48.754;8.868;2024-01-06T16:16:41;3.40;;;3.10;;
19179;SDS011;9722;48.754;8.868;2024-01-06T16:20:01;5.43;;;4.57;;
19179;SDS011;9722;48.754;8.868;2024-01-06T16:23:22;6.53;;;5.40;;
19179;SDS011;9722;48.754;8.868;2024-01-06T16:26:45;3.57;;;3.27;;
19179;SDS011;9722;48.754;8.868;2024-01-06T16:30:05;4.10;;;3.70;;
19179;SDS011;9722;48.754;8.868;2024-01-06T16:33:27;4.17;;;3.77;;
19179;SDS011;9722;48.754;8.868;2024-01-06T16:36:47;4.00;;;3.50;;
19179;SDS011;9722;48.754;8.868;2024-01-06T16:40:08;4.23;;;3.47;;
19179;SDS011;9722;48.754;8.868;2024-01-06T16:43:31;3.63;;;3.33;;
19179;SDS011;9722;48.754;8.868;2024-01-06T16:46:54;4.43;;;4.03;;
19179;SDS011;9722;48.754;8.868;2024-01-06T16:50:18;4.10;;;3.70;;
19179;SDS011;9722;48.754;8.868;2024-01-06T16:53:38;2.80;;;2.60;;
19179;SDS011;9722;48.754;8.868;2024-01-06T16:56:59;3.27;;;3.03;;
19179;SDS011;9722;48.754;8.868;2024-01-06T17:00:20;3.67;;;3.30;;
19179;SDS011;9722;48.754;8.868;2024-01-06T17:03:40;3.47;;;3.20;;
19179;SDS011;9722;48.754;8.868;2024-01-06T17:07:01;3.67;;;3.37;;
19179;SDS011;9722;48.754;8.868;2024-01-06T17:10:24;4.33;;;3.93;;
19179;SDS011;9722;48.754;8.868;2024-01-06T17:13:44;4.13;;;3.47;;
19179;SDS011;9722;48.754;8.868;2024-01-06T17:17:05;3.80;;;3.50;;
19179;SDS011;9722;48.754;8.868;2024-01-06T17:20:25;5.27;;;4.20;;
19179;SDS011;9722;48.754;8.868;2024-01-06T17:23:46;6.27;;;5.63;;
19179;SDS011;9722;48.754;8.868;2024-01-06T17:27:07;6.87;;;6.17;;
19179;SDS011;9722;48.754;8.868;2024-01-06T17:30:28;6.40;;;5.83;;
19179;SDS011;9722;48.754;8.868;2024-01-06T17:33:48;7.07;;;6.47;;
19179;SDS011;9722;48.754;8.868;2024-01-06T17:37:10;8.77;;;7.87;;
19179;SDS011;9722;48.754;8.868;2024-01-06T17:40:30;7.00;;;6.30;;
19179;SDS011;9722;48.754;8.868;2024-01-06T17:43:51;7.93;;;7.23;;
19179;SDS011;9722;48.754;8.868;2024-01-06T17:47:15;6.30;;;5.70;;
19179;SDS011;9722;48.754;8.868;2024-01-06T17:50:36;6.57;;;5.97;;
19179;SDS011;9722;48.754;8.868;2024-01-06T17:53:56;8.37;;;7.53;;
19179;SDS011;9722;48.754;8.868;2024-01-06T17:57:17;7.30;;;6.63;;
19179;SDS011;9722;48.754;8.868;2024-01-06T18:00:39;6.90;;;6.27;;
19179;SDS011;9722;48.754;8.868;2024-01-06T18:03:59;5.63;;;5.13;;
19179;SDS011;9722;48.754;8.868;2024-01-06T18:07:20;7.30;;;6.33;;
19179;SDS011;9722;48.754;8.868;2024-01-06T18:10:40;7.63;;;6.93;;
19179;SDS011;9722;48.754;8.868;2024-01-06T18:14:01;7.63;;;6.87;;
19179;SDS011;9722;48.754;8.868;2024-01-06T18:17:21;7.17;;;6.40;;
19179;SDS011;9722;48.754;8.868;2024-01-06T18:20:42;6.07;;;5.57;;
19179;SDS011;9722;48.754;8.868;2024-01-06T18:24:04;11.67;;;8.60;;
19179;SDS011;9722;48.754;8.868;2024-01-06T18:27:24;9.70;;;8.73;;
19179;SDS011;9722;48.754;8.868;2024-01-06T18:30:45;6.37;;;5.80;;
19179;SDS011;9722;48.754;8.868;2024-01-06T18:34:05;6.43;;;5.67;;
19179;SDS011;9722;48.754;8.868;2024-01-06T18:37:26;6.43;;;5.80;;
19179;SDS011;9722;48.754;8.868;2024-01-06T18:40:46;7.20;;;6.60;;
19179;SDS011;9722;48.754;8.868;2024-01-06T18:44:07;7.40;;;6.47;;
19179;SDS011;9722;48.754;8.868;2024-01-06T18:47:29;7.00;;;6.43;;
19179;SDS011;9722;48.754;8.868;2024-01-06T18:50:50;6.50;;;6.00;;
19179;SDS011;9722;48.754;8.868;2024-01-06T18:54:10;7.33;;;6.47;;
19179;SDS011;9722;48.754;8.868;2024-01-06T18:57:31;7.43;;;6.83;;
19179;SDS011;9722;48.754;8.868;2024-01-06T19:00:52;8.03;;;7.33;;
19179;SDS011;9722;48.754;8.868;2024-01-06T19:04:13;8.20;;;7.50;;
19179;SDS011;9722;48.754;8.868;2024-01-06T19:07:34;7.70;;;6.90;;
19179;SDS011;9722;48.754;8.868;2024-01-06T19:10:55;7.83;;;7.13;;
19179;SDS011;9722;48.754;8.868;2024-01-06T19:14:16;9.50;;;8.57;;
19179;SDS011;9722;48.754;8.868;2024-01-06T19:17:36;8.87;;;8.00;;
19179;SDS011;9722;48.754;8.868;2024-01-06T19:20:57;7.20;;;6.60;;
19179;SDS011;9722;48.754;8.868;2024-01-06T19:24:17;7.27;;;6.57;;
19179;SDS011;9722;48.754;8.868;2024-01-06T19:27:38;6.93;;;6.37;;
19179;SDS011;9722;48.754;8.868;2024-01-06T19:30:58;7.53;;;6.60;;
19179;SDS011;9722;48.754;8.868;2024-01-06T19:34:19;6.17;;;5.60;;
19179;SDS011;9722;48.754;8.868;2024-01-06T19:37:39;8.30;;;7.50;;
19179;SDS011;9722;48.754;8.868;2024-01-06T19:41:00;15.13;;;10.40;;
19179;SDS011;9722;48.754;8.868;2024-01-06T19:44:20;14.90;;;11.03;;
19179;SDS011;9722;48.754;8.868;2024-01-06T19:47:41;11.10;;;9.90;;
19179;SDS011;9722;48.754;8.868;2024-01-06T19:51:01;16.60;;;9.70;;
19179;SDS011;9722;48.754;8.868;2024-01-06T19:54:22;11.60;;;9.07;;
19179;SDS011;9722;48.754;8.868;2024-01-06T19:57:43;12.03;;;9.73;;
19179;SDS011;9722;48.754;8.868;2024-01-06T20:01:04;10.50;;;8.23;;
19179;SDS011;9722;48.754;8.868;2024-01-06T20:04:25;15.87;;;10.83;;
19179;SDS011;9722;48.754;8.868;2024-01-06T20:07:46;11.17;;;9.83;;
19179;SDS011;9722;48.754;8.868;2024-01-06T20:11:07;9.73;;;8.73;;
19179;SDS011;9722;48.754;8.868;2024-01-06T20:14:28;9.90;;;8.00;;
19179;SDS011;9722;48.754;8.868;2024-01-06T20:17:50;10.17;;;9.27;;
19179;SDS011;9722;48.754;8.868;2024-01-06T20:21:11;10.70;;;9.70;;
19179;SDS011;9722;48.754;8.868;2024-01-06T20:24:33;11.97;;;10.67;;
19179;SDS011;9722;48.754;8.868;2024-01-06T20:27:53;10.53;;;9.53;;
19179;SDS011;9722;48.754;8.868;2024-01-06T20:31:20;12.43;;;8.90;;
19179;SDS011;9722;48.754;8.868;2024-01-06T20:34:40;11.03;;;9.93;;